sensor_id;sensor_type;location;lat;lon;timestamp;temperature;humidity
17851;DHT22;9051;51.548;14.348;2023-04-03T00:47:59;2.20;99.90
17851;DHT22;9051;51.548;14.348;2023-04-03T01:05:19;1.90;99.90
17851;DHT22;9051;51.548;14.348;2023-04-03T01:41:59;1.30;99.90
17851;DHT22;9051;51.548;14.348;2023-04-03T01:44:38;1.30;99.90
17851;DHT22;9051;51.548;14.348;2023-04-03T01:47:10;1.20;99.90
17851;DHT22;9051;51.548;14.348;2023-04-03T01:49:44;1.30;99.90
17851;DHT22;9051;51.548;14.348;2023-04-03T01:52:16;1.20;99.90
17851;DHT22;9051;51.548;14.348;2023-04-03T01:54:47;1.20;99.90
17851;DHT22;9051;51.548;14.348;2023-04-03T01:57:21;1.10;99.90
17851;DHT22;9051;51.548;14.348;2023-04-03T01:59:53;1.10;99.90
17851;DHT22;9051;51.548;14.348;2023-04-03T02:02:25;1.10;99.90
17851;DHT22;9051;51.548;14.348;2023-04-03T02:04:57;1.10;99.90
17851;DHT22;9051;51.548;14.348;2023-04-03T02:07:29;1.10;99.90
17851;DHT22;9051;51.548;14.348;2023-04-03T02:10:02;1.00;99.90
17851;DHT22;9051;51.548;14.348;2023-04-03T02:12:36;1.00;99.90
17851;DHT22;9051;51.548;14.348;2023-04-03T02:15:08;1.00;99.90
17851;DHT22;9051;51.548;14.348;2023-04-03T02:17:40;1.00;99.90
17851;DHT22;9051;51.548;14.348;2023-04-03T02:20:12;0.90;99.90
17851;DHT22;9051;51.548;14.348;2023-04-03T02:22:45;0.90;99.90
17851;DHT22;9051;51.548;14.348;2023-04-03T02:25:17;0.90;99.90
17851;DHT22;9051;51.548;14.348;2023-04-03T02:27:50;0.90;99.90
17851;DHT22;9051;51.548;14.348;2023-04-03T02:30:22;0.80;99.90
17851;DHT22;9051;51.548;14.348;2023-04-03T02:32:54;0.80;99.90
17851;DHT22;9051;51.548;14.348;2023-04-03T02:35:26;0.80;99.90
17851;DHT22;9051;51.548;14.348;2023-04-03T02:38:01;0.70;99.90
17851;DHT22;9051;51.548;14.348;2023-04-03T02:40:35;0.70;99.90
17851;DHT22;9051;51.548;14.348;2023-04-03T02:43:09;0.70;99.90
17851;DHT22;9051;51.548;14.348;2023-04-03T02:45:42;0.70;99.90
17851;DHT22;9051;51.548;14.348;2023-04-03T02:48:15;0.60;99.90
17851;DHT22;9051;51.548;14.348;2023-04-03T02:50:47;0.60;99.90
17851;DHT22;9051;51.548;14.348;2023-04-03T02:53:19;0.60;99.90
17851;DHT22;9051;51.548;14.348;2023-04-03T02:55:53;0.60;99.90
17851;DHT22;9051;51.548;14.348;2023-04-03T02:58:27;0.60;99.90
17851;DHT22;9051;51.548;14.348;2023-04-03T03:01:01;0.60;99.90
17851;DHT22;9051;51.548;14.348;2023-04-03T03:03:34;0.60;99.90
17851;DHT22;9051;51.548;14.348;2023-04-03T03:06:07;0.50;99.90
17851;DHT22;9051;51.548;14.348;2023-04-03T03:08:40;0.60;99.90
17851;DHT22;9051;51.548;14.348;2023-04-03T03:11:12;0.50;99.90
17851;DHT22;9051;51.548;14.348;2023-04-03T03:13:46;0.40;99.90
17851;DHT22;9051;51.548;14.348;2023-04-03T03:16:18;0.40;99.90
17851;DHT22;9051;51.548;14.348;2023-04-03T03:18:50;0.30;99.90
17851;DHT22;9051;51.548;14.348;2023-04-03T03:21:22;0.30;99.90
17851;DHT22;9051;51.548;14.348;2023-04-03T03:23:55;0.40;99.90
17851;DHT22;9051;51.548;14.348;2023-04-03T03:26:26;0.40;99.90
17851;DHT22;9051;51.548;14.348;2023-04-03T03:29:00;0.40;99.90
17851;DHT22;9051;51.548;14.348;2023-04-03T03:31:33;0.30;99.90
17851;DHT22;9051;51.548;14.348;2023-04-03T03:34:06;0.20;99.90
17851;DHT22;9051;51.548;14.348;2023-04-03T03:36:38;0.20;99.90
17851;DHT22;9051;51.548;14.348;2023-04-03T03:39:10;0.20;99.90
17851;DHT22;9051;51.548;14.348;2023-04-03T03:41:42;0.20;99.90
17851;DHT22;9051;51.548;14.348;2023-04-03T03:44:15;0.20;99.90
17851;DHT22;9051;51.548;14.348;2023-04-03T03:46:48;0.20;99.90
17851;DHT22;9051;51.548;14.348;2023-04-03T03:49:20;0.10;99.90
17851;DHT22;9051;51.548;14.348;2023-04-03T03:51:52;0.10;99.90
17851;DHT22;9051;51.548;14.348;2023-04-03T03:54:24;0.10;99.90
17851;DHT22;9051;51.548;14.348;2023-04-03T03:56:56;0.10;99.90
17851;DHT22;9051;51.548;14.348;2023-04-03T04:03:23;0.10;99.90
17851;DHT22;9051;51.548;14.348;2023-04-03T04:05:56;0.10;99.90
17851;DHT22;9051;51.548;14.348;2023-04-03T04:08:28;0.10;99.90
17851;DHT22;9051;51.548;14.348;2023-04-03T04:11:00;0.10;99.90
17851;DHT22;9051;51.548;14.348;2023-04-03T04:13:34;0.10;99.90
17851;DHT22;9051;51.548;14.348;2023-04-03T04:16:07;0.10;99.90
17851;DHT22;9051;51.548;14.348;2023-04-03T04:18:41;0.20;99.90
17851;DHT22;9051;51.548;14.348;2023-04-03T04:21:13;0.20;99.90
17851;DHT22;9051;51.548;14.348;2023-04-03T04:23:46;0.20;99.90
17851;DHT22;9051;51.548;14.348;2023-04-03T04:26:19;0.10;99.90
17851;DHT22;9051;51.548;14.348;2023-04-03T04:28:51;0.00;99.90
17851;DHT22;9051;51.548;14.348;2023-04-03T04:31:25;0.00;99.90
17851;DHT22;9051;51.548;14.348;2023-04-03T04:33:59;0.00;99.90
17851;DHT22;9051;51.548;14.348;2023-04-03T04:36:32;0.00;99.90
17851;DHT22;9051;51.548;14.348;2023-04-03T04:39:04;0.10;99.90
17851;DHT22;9051;51.548;14.348;2023-04-03T04:41:36;0.00;99.90
17851;DHT22;9051;51.548;14.348;2023-04-03T04:44:10;0.00;99.90
17851;DHT22;9051;51.548;14.348;2023-04-03T04:46:43;0.00;99.90
17851;DHT22;9051;51.548;14.348;2023-04-03T04:49:17;0.10;99.90
17851;DHT22;9051;51.548;14.348;2023-04-03T04:51:49;0.10;99.90
17851;DHT22;9051;51.548;14.348;2023-04-03T04:54:22;0.10;99.90
17851;DHT22;9051;51.548;14.348;2023-04-03T04:56:56;0.10;99.90
17851;DHT22;9051;51.548;14.348;2023-04-03T04:59:28;0.20;99.90
17851;DHT22;9051;51.548;14.348;2023-04-03T05:02:02;0.10;99.90
17851;DHT22;9051;51.548;14.348;2023-04-03T05:04:36;0.10;99.90
17851;DHT22;9051;51.548;14.348;2023-04-03T05:07:14;0.10;99.90
17851;DHT22;9051;51.548;14.348;2023-04-03T05:09:47;0.10;99.90
17851;DHT22;9051;51.548;14.348;2023-04-03T05:12:27;0.20;99.90
17851;DHT22;9051;51.548;14.348;2023-04-03T06:08:07;0.70;99.90
17851;DHT22;9051;51.548;14.348;2023-04-03T06:10:40;0.70;99.90
17851;DHT22;9051;51.548;14.348;2023-04-03T06:13:12;0.70;99.90
17851;DHT22;9051;51.548;14.348;2023-04-03T06:15:44;0.80;99.90
17851;DHT22;9051;51.548;14.348;2023-04-03T06:18:17;0.80;99.90
17851;DHT22;9051;51.548;14.348;2023-04-03T06:20:49;0.90;99.90
17851;DHT22;9051;51.548;14.348;2023-04-03T06:23:23;0.90;99.90
17851;DHT22;9051;51.548;14.348;2023-04-03T06:25:55;0.90;99.90
17851;DHT22;9051;51.548;14.348;2023-04-03T06:28:27;1.00;99.90
17851;DHT22;9051;51.548;14.348;2023-04-03T06:30:58;1.00;99.90
17851;DHT22;9051;51.548;14.348;2023-04-03T06:33:30;1.10;99.90
17851;DHT22;9051;51.548;14.348;2023-04-03T06:36:04;1.20;99.90
17851;DHT22;9051;51.548;14.348;2023-04-03T06:38:38;1.20;99.90
17851;DHT22;9051;51.548;14.348;2023-04-03T06:41:10;1.30;99.90
17851;DHT22;9051;51.548;14.348;2023-04-03T06:43:42;1.30;99.90
17851;DHT22;9051;51.548;14.348;2023-04-03T06:46:15;1.30;99.90
17851;DHT22;9051;51.548;14.348;2023-04-03T06:48:48;1.40;99.90
17851;DHT22;9051;51.548;14.348;2023-04-03T06:51:22;1.40;99.90
17851;DHT22;9051;51.548;14.348;2023-04-03T06:53:57;1.50;99.90
17851;DHT22;9051;51.548;14.348;2023-04-03T06:56:30;1.50;99.90
17851;DHT22;9051;51.548;14.348;2023-04-03T06:59:02;1.60;99.90
17851;DHT22;9051;51.548;14.348;2023-04-03T07:01:34;1.70;99.90
17851;DHT22;9051;51.548;14.348;2023-04-03T07:04:07;1.80;99.90
17851;DHT22;9051;51.548;14.348;2023-04-03T07:06:39;1.90;99.90
17851;DHT22;9051;51.548;14.348;2023-04-03T07:09:13;2.00;99.90
17851;DHT22;9051;51.548;14.348;2023-04-03T07:11:45;2.10;99.90
17851;DHT22;9051;51.548;14.348;2023-04-03T07:14:17;2.10;99.90
17851;DHT22;9051;51.548;14.348;2023-04-03T07:16:49;2.20;99.90
17851;DHT22;9051;51.548;14.348;2023-04-03T07:19:21;2.20;99.90
17851;DHT22;9051;51.548;14.348;2023-04-03T07:21:55;2.30;99.90
17851;DHT22;9051;51.548;14.348;2023-04-03T07:24:28;2.30;99.90
17851;DHT22;9051;51.548;14.348;2023-04-03T07:27:00;2.20;99.90
17851;DHT22;9051;51.548;14.348;2023-04-03T07:29:33;2.20;99.90
17851;DHT22;9051;51.548;14.348;2023-04-03T07:32:05;2.30;99.90
17851;DHT22;9051;51.548;14.348;2023-04-03T07:34:37;2.40;99.90
17851;DHT22;9051;51.548;14.348;2023-04-03T07:37:09;2.50;99.90
17851;DHT22;9051;51.548;14.348;2023-04-03T07:39:44;2.60;99.90
17851;DHT22;9051;51.548;14.348;2023-04-03T07:42:16;2.70;99.90
17851;DHT22;9051;51.548;14.348;2023-04-03T07:44:48;2.90;99.90
17851;DHT22;9051;51.548;14.348;2023-04-03T07:47:20;2.90;99.90
17851;DHT22;9051;51.548;14.348;2023-04-03T07:49:52;3.00;99.90
17851;DHT22;9051;51.548;14.348;2023-04-03T07:52:24;3.00;99.90
17851;DHT22;9051;51.548;14.348;2023-04-03T07:54:58;3.10;99.90
17851;DHT22;9051;51.548;14.348;2023-04-03T07:57:30;3.20;99.90
17851;DHT22;9051;51.548;14.348;2023-04-03T08:00:02;3.30;99.90
17851;DHT22;9051;51.548;14.348;2023-04-03T08:02:44;3.40;99.90
17851;DHT22;9051;51.548;14.348;2023-04-03T08:05:21;3.50;99.90
17851;DHT22;9051;51.548;14.348;2023-04-03T08:07:53;3.60;99.90
17851;DHT22;9051;51.548;14.348;2023-04-03T08:10:26;3.60;99.90
17851;DHT22;9051;51.548;14.348;2023-04-03T08:12:58;3.70;99.90
17851;DHT22;9051;51.548;14.348;2023-04-03T08:15:31;3.60;99.90
17851;DHT22;9051;51.548;14.348;2023-04-03T08:18:03;3.60;99.90
17851;DHT22;9051;51.548;14.348;2023-04-03T08:20:35;3.60;99.90
17851;DHT22;9051;51.548;14.348;2023-04-03T08:23:07;3.60;99.90
17851;DHT22;9051;51.548;14.348;2023-04-03T08:25:41;3.80;99.90
17851;DHT22;9051;51.548;14.348;2023-04-03T08:28:13;3.80;99.90
17851;DHT22;9051;51.548;14.348;2023-04-03T08:30:45;3.90;99.90
17851;DHT22;9051;51.548;14.348;2023-04-03T08:33:17;3.90;99.90
17851;DHT22;9051;51.548;14.348;2023-04-03T08:35:49;3.90;99.90
17851;DHT22;9051;51.548;14.348;2023-04-03T08:38:21;3.80;99.90
17851;DHT22;9051;51.548;14.348;2023-04-03T08:41:04;3.70;99.90
17851;DHT22;9051;51.548;14.348;2023-04-03T08:46:56;4.10;99.90
17851;DHT22;9051;51.548;14.348;2023-04-03T08:49:35;4.20;99.90
17851;DHT22;9051;51.548;14.348;2023-04-03T08:52:11;4.40;99.90
17851;DHT22;9051;51.548;14.348;2023-04-03T08:54:50;4.60;99.90
17851;DHT22;9051;51.548;14.348;2023-04-03T08:57:29;4.90;99.90
17851;DHT22;9051;51.548;14.348;2023-04-03T09:00:05;5.00;99.90
17851;DHT22;9051;51.548;14.348;2023-04-03T09:02:42;5.10;99.90
17851;DHT22;9051;51.548;14.348;2023-04-03T09:05:17;5.20;99.90
17851;DHT22;9051;51.548;14.348;2023-04-03T09:07:55;5.20;99.90
17851;DHT22;9051;51.548;14.348;2023-04-03T09:10:33;4.70;99.90
17851;DHT22;9051;51.548;14.348;2023-04-03T09:13:12;4.60;99.90
17851;DHT22;9051;51.548;14.348;2023-04-03T09:15:45;4.60;99.90
17851;DHT22;9051;51.548;14.348;2023-04-03T09:18:20;4.70;99.90
17851;DHT22;9051;51.548;14.348;2023-04-03T09:20:57;4.70;99.90
17851;DHT22;9051;51.548;14.348;2023-04-03T09:23:39;4.70;99.90
17851;DHT22;9051;51.548;14.348;2023-04-03T09:26:15;4.60;99.90
17851;DHT22;9051;51.548;14.348;2023-04-03T09:28:51;4.40;99.90
17851;DHT22;9051;51.548;14.348;2023-04-03T09:31:26;4.40;99.90
17851;DHT22;9051;51.548;14.348;2023-04-03T09:34:01;4.40;99.90
17851;DHT22;9051;51.548;14.348;2023-04-03T09:36:42;4.30;99.90
17851;DHT22;9051;51.548;14.348;2023-04-03T09:39:15;4.30;99.90
17851;DHT22;9051;51.548;14.348;2023-04-03T09:41:57;4.30;99.90
17851;DHT22;9051;51.548;14.348;2023-04-03T09:44:33;4.40;99.90
17851;DHT22;9051;51.548;14.348;2023-04-03T09:47:19;4.80;99.90
17851;DHT22;9051;51.548;14.348;2023-04-03T09:49:51;5.10;99.90
17851;DHT22;9051;51.548;14.348;2023-04-03T09:52:40;5.20;99.90
17851;DHT22;9051;51.548;14.348;2023-04-03T09:55:15;5.20;99.90
17851;DHT22;9051;51.548;14.348;2023-04-03T09:57:48;5.10;99.90
17851;DHT22;9051;51.548;14.348;2023-04-03T10:00:24;5.10;99.90
17851;DHT22;9051;51.548;14.348;2023-04-03T10:02:57;5.00;99.90
17851;DHT22;9051;51.548;14.348;2023-04-03T10:05:32;5.10;99.90
17851;DHT22;9051;51.548;14.348;2023-04-03T10:08:10;5.30;99.90
17851;DHT22;9051;51.548;14.348;2023-04-03T10:10:45;5.50;99.90
17851;DHT22;9051;51.548;14.348;2023-04-03T10:13:19;5.60;99.90
17851;DHT22;9051;51.548;14.348;2023-04-03T10:15:57;5.40;99.90
17851;DHT22;9051;51.548;14.348;2023-04-03T10:18:39;5.30;99.90
17851;DHT22;9051;51.548;14.348;2023-04-03T10:21:17;5.40;99.90
17851;DHT22;9051;51.548;14.348;2023-04-03T10:23:54;5.60;99.90
17851;DHT22;9051;51.548;14.348;2023-04-03T10:26:35;5.60;99.90
17851;DHT22;9051;51.548;14.348;2023-04-03T10:29:16;5.70;99.90
17851;DHT22;9051;51.548;14.348;2023-04-03T10:32:03;6.00;99.90
17851;DHT22;9051;51.548;14.348;2023-04-03T10:34:44;5.90;99.90
17851;DHT22;9051;51.548;14.348;2023-04-03T10:37:23;5.80;99.90
17851;DHT22;9051;51.548;14.348;2023-04-03T10:39:59;5.80;99.90
17851;DHT22;9051;51.548;14.348;2023-04-03T10:42:37;5.70;99.90
17851;DHT22;9051;51.548;14.348;2023-04-03T10:45:24;5.80;99.90
17851;DHT22;9051;51.548;14.348;2023-04-03T10:48:04;5.70;99.90
17851;DHT22;9051;51.548;14.348;2023-04-03T10:50:43;5.60;99.90
17851;DHT22;9051;51.548;14.348;2023-04-03T10:53:27;5.50;99.90
17851;DHT22;9051;51.548;14.348;2023-04-03T10:56:07;5.40;99.90
17851;DHT22;9051;51.548;14.348;2023-04-03T10:58:45;5.40;99.90
17851;DHT22;9051;51.548;14.348;2023-04-03T11:01:21;5.30;99.90
17851;DHT22;9051;51.548;14.348;2023-04-03T11:03:57;5.30;99.90
17851;DHT22;9051;51.548;14.348;2023-04-03T11:06:35;5.40;99.90
17851;DHT22;9051;51.548;14.348;2023-04-03T11:09:18;5.60;99.90
17851;DHT22;9051;51.548;14.348;2023-04-03T11:11:55;5.70;99.90
17851;DHT22;9051;51.548;14.348;2023-04-03T11:14:29;5.80;99.90
17851;DHT22;9051;51.548;14.348;2023-04-03T11:17:11;5.80;99.90
17851;DHT22;9051;51.548;14.348;2023-04-03T11:19:52;5.60;99.90
17851;DHT22;9051;51.548;14.348;2023-04-03T11:22:32;5.40;99.90
17851;DHT22;9051;51.548;14.348;2023-04-03T11:25:15;5.40;99.90
17851;DHT22;9051;51.548;14.348;2023-04-03T11:27:56;5.50;99.90
17851;DHT22;9051;51.548;14.348;2023-04-03T11:30:31;5.30;99.90
17851;DHT22;9051;51.548;14.348;2023-04-03T11:33:19;5.30;99.90
17851;DHT22;9051;51.548;14.348;2023-04-03T11:35:59;5.30;99.90
17851;DHT22;9051;51.548;14.348;2023-04-03T11:38:34;5.40;99.90
17851;DHT22;9051;51.548;14.348;2023-04-03T11:41:11;5.50;99.90
17851;DHT22;9051;51.548;14.348;2023-04-03T11:43:59;5.60;99.90
17851;DHT22;9051;51.548;14.348;2023-04-03T11:46:54;5.60;99.90
17851;DHT22;9051;51.548;14.348;2023-04-03T11:49:59;5.70;99.90
17851;DHT22;9051;51.548;14.348;2023-04-03T13:23:28;5.20;99.90
17851;DHT22;9051;51.548;14.348;2023-04-03T13:26:00;5.30;99.90
17851;DHT22;9051;51.548;14.348;2023-04-03T13:28:34;5.40;99.90
17851;DHT22;9051;51.548;14.348;2023-04-03T13:31:09;5.30;99.90
17851;DHT22;9051;51.548;14.348;2023-04-03T13:33:56;5.30;99.90
17851;DHT22;9051;51.548;14.348;2023-04-03T13:36:31;5.20;99.90
17851;DHT22;9051;51.548;14.348;2023-04-03T13:39:20;5.10;99.90
17851;DHT22;9051;51.548;14.348;2023-04-03T13:41:55;5.20;99.90
17851;DHT22;9051;51.548;14.348;2023-04-03T13:44:31;5.30;99.90
17851;DHT22;9051;51.548;14.348;2023-04-03T13:47:17;5.20;99.90
17851;DHT22;9051;51.548;14.348;2023-04-03T13:50:00;5.10;99.90
17851;DHT22;9051;51.548;14.348;2023-04-03T13:52:40;4.90;99.90
17851;DHT22;9051;51.548;14.348;2023-04-03T13:55:21;5.10;99.90
17851;DHT22;9051;51.548;14.348;2023-04-03T13:57:56;5.10;99.90
17851;DHT22;9051;51.548;14.348;2023-04-03T14:00:32;5.20;99.90
17851;DHT22;9051;51.548;14.348;2023-04-03T14:03:16;5.30;99.90
17851;DHT22;9051;51.548;14.348;2023-04-03T14:05:50;5.40;99.90
17851;DHT22;9051;51.548;14.348;2023-04-03T14:08:22;5.50;99.90
17851;DHT22;9051;51.548;14.348;2023-04-03T14:10:56;5.40;99.90
17851;DHT22;9051;51.548;14.348;2023-04-03T14:13:30;5.40;99.90
17851;DHT22;9051;51.548;14.348;2023-04-03T14:16:03;5.30;99.90
17851;DHT22;9051;51.548;14.348;2023-04-03T14:18:35;5.50;99.90
17851;DHT22;9051;51.548;14.348;2023-04-03T14:21:09;5.40;99.90
17851;DHT22;9051;51.548;14.348;2023-04-03T14:23:42;5.40;99.90
17851;DHT22;9051;51.548;14.348;2023-04-03T14:26:18;5.50;99.90
17851;DHT22;9051;51.548;14.348;2023-04-03T14:28:53;5.50;99.90
17851;DHT22;9051;51.548;14.348;2023-04-03T14:31:26;5.40;99.90
17851;DHT22;9051;51.548;14.348;2023-04-03T14:33:57;5.40;99.90
17851;DHT22;9051;51.548;14.348;2023-04-03T14:36:30;5.50;99.90
17851;DHT22;9051;51.548;14.348;2023-04-03T14:39:03;5.40;99.90
17851;DHT22;9051;51.548;14.348;2023-04-03T14:41:36;5.40;99.90
17851;DHT22;9051;51.548;14.348;2023-04-03T14:44:08;5.40;99.90
17851;DHT22;9051;51.548;14.348;2023-04-03T14:46:43;5.30;99.90
17851;DHT22;9051;51.548;14.348;2023-04-03T14:49:19;5.30;99.90
17851;DHT22;9051;51.548;14.348;2023-04-03T14:51:51;5.40;99.90
17851;DHT22;9051;51.548;14.348;2023-04-03T14:54:24;5.70;99.90
17851;DHT22;9051;51.548;14.348;2023-04-03T14:57:00;6.00;99.90
17851;DHT22;9051;51.548;14.348;2023-04-03T14:59:32;6.30;99.90
17851;DHT22;9051;51.548;14.348;2023-04-03T15:02:24;6.50;99.90
17851;DHT22;9051;51.548;14.348;2023-04-03T15:04:57;6.50;99.90
17851;DHT22;9051;51.548;14.348;2023-04-03T15:07:31;6.50;99.90
17851;DHT22;9051;51.548;14.348;2023-04-03T15:10:15;6.10;99.90
17851;DHT22;9051;51.548;14.348;2023-04-03T15:12:50;5.80;99.90
17851;DHT22;9051;51.548;14.348;2023-04-03T15:15:23;5.70;99.90
17851;DHT22;9051;51.548;14.348;2023-04-03T15:17:56;5.50;99.90
17851;DHT22;9051;51.548;14.348;2023-04-03T15:20:29;5.50;99.90
17851;DHT22;9051;51.548;14.348;2023-04-03T15:23:03;5.40;99.90
17851;DHT22;9051;51.548;14.348;2023-04-03T15:25:36;5.40;99.90
17851;DHT22;9051;51.548;14.348;2023-04-03T15:28:15;5.40;99.90
17851;DHT22;9051;51.548;14.348;2023-04-03T15:30:49;5.30;99.90
17851;DHT22;9051;51.548;14.348;2023-04-03T15:33:22;5.20;99.90
17851;DHT22;9051;51.548;14.348;2023-04-03T15:35:54;5.20;99.90
17851;DHT22;9051;51.548;14.348;2023-04-03T15:38:26;5.30;99.90
17851;DHT22;9051;51.548;14.348;2023-04-03T15:40:58;5.70;99.90
17851;DHT22;9051;51.548;14.348;2023-04-03T15:43:31;6.00;99.90
17851;DHT22;9051;51.548;14.348;2023-04-03T15:46:04;6.10;99.90
17851;DHT22;9051;51.548;14.348;2023-04-03T15:48:36;6.20;99.90
17851;DHT22;9051;51.548;14.348;2023-04-03T15:51:08;6.00;99.90
17851;DHT22;9051;51.548;14.348;2023-04-03T15:53:40;5.90;99.90
17851;DHT22;9051;51.548;14.348;2023-04-03T15:56:12;5.70;99.90
17851;DHT22;9051;51.548;14.348;2023-04-03T15:58:46;5.80;99.90
17851;DHT22;9051;51.548;14.348;2023-04-03T16:01:18;5.90;99.90
17851;DHT22;9051;51.548;14.348;2023-04-03T16:03:50;6.20;99.90
17851;DHT22;9051;51.548;14.348;2023-04-03T16:06:24;6.40;99.90
17851;DHT22;9051;51.548;14.348;2023-04-03T16:09:00;6.30;99.90
17851;DHT22;9051;51.548;14.348;2023-04-03T16:11:32;6.10;99.90
17851;DHT22;9051;51.548;14.348;2023-04-03T16:14:07;5.90;99.90
17851;DHT22;9051;51.548;14.348;2023-04-03T16:16:39;6.00;99.90
17851;DHT22;9051;51.548;14.348;2023-04-03T16:19:11;6.10;99.90
17851;DHT22;9051;51.548;14.348;2023-04-03T16:21:43;6.20;99.90
17851;DHT22;9051;51.548;14.348;2023-04-03T16:24:16;6.10;99.90
17851;DHT22;9051;51.548;14.348;2023-04-03T16:26:48;6.20;99.90
17851;DHT22;9051;51.548;14.348;2023-04-03T16:29:21;6.20;99.90
17851;DHT22;9051;51.548;14.348;2023-04-03T16:31:53;6.10;99.90
17851;DHT22;9051;51.548;14.348;2023-04-03T16:34:25;5.90;99.90
17851;DHT22;9051;51.548;14.348;2023-04-03T16:37:00;5.80;99.90
17851;DHT22;9051;51.548;14.348;2023-04-03T16:39:32;5.70;99.90
17851;DHT22;9051;51.548;14.348;2023-04-03T16:42:04;5.60;99.90
17851;DHT22;9051;51.548;14.348;2023-04-03T16:44:37;5.60;99.90
17851;DHT22;9051;51.548;14.348;2023-04-03T16:47:10;5.60;99.90
17851;DHT22;9051;51.548;14.348;2023-04-03T16:49:44;5.60;99.90
17851;DHT22;9051;51.548;14.348;2023-04-03T16:52:16;5.50;99.90
17851;DHT22;9051;51.548;14.348;2023-04-03T16:54:48;5.50;99.90
17851;DHT22;9051;51.548;14.348;2023-04-03T16:57:20;5.50;99.90
17851;DHT22;9051;51.548;14.348;2023-04-03T16:59:53;5.40;99.90
17851;DHT22;9051;51.548;14.348;2023-04-03T17:02:25;5.30;99.90
17851;DHT22;9051;51.548;14.348;2023-04-03T17:04:58;5.30;99.90
17851;DHT22;9051;51.548;14.348;2023-04-03T17:07:29;5.30;99.90
17851;DHT22;9051;51.548;14.348;2023-04-03T17:10:01;5.20;99.90
17851;DHT22;9051;51.548;14.348;2023-04-03T17:12:33;5.20;99.90
17851;DHT22;9051;51.548;14.348;2023-04-03T17:15:08;5.10;99.90
17851;DHT22;9051;51.548;14.348;2023-04-03T17:17:40;4.90;99.90
17851;DHT22;9051;51.548;14.348;2023-04-03T17:20:12;5.00;99.90
17851;DHT22;9051;51.548;14.348;2023-04-03T17:22:44;5.10;99.90
17851;DHT22;9051;51.548;14.348;2023-04-03T17:25:16;5.00;99.90
17851;DHT22;9051;51.548;14.348;2023-04-03T17:27:48;5.00;99.90
17851;DHT22;9051;51.548;14.348;2023-04-03T17:30:21;4.90;99.90
17851;DHT22;9051;51.548;14.348;2023-04-03T17:32:53;4.90;99.90
17851;DHT22;9051;51.548;14.348;2023-04-03T17:35:25;4.90;99.90
17851;DHT22;9051;51.548;14.348;2023-04-03T17:37:57;4.90;99.90
17851;DHT22;9051;51.548;14.348;2023-04-03T17:40:29;4.90;99.90
17851;DHT22;9051;51.548;14.348;2023-04-03T17:43:01;4.90;99.90
17851;DHT22;9051;51.548;14.348;2023-04-03T17:45:34;4.90;99.90
17851;DHT22;9051;51.548;14.348;2023-04-03T17:48:06;4.80;99.90
17851;DHT22;9051;51.548;14.348;2023-04-03T17:50:38;4.70;99.90
17851;DHT22;9051;51.548;14.348;2023-04-03T20:14:33;4.10;99.90
17851;DHT22;9051;51.548;14.348;2023-04-03T20:18:51;4.00;99.90
17851;DHT22;9051;51.548;14.348;2023-04-03T21:20:45;3.70;99.90
17851;DHT22;9051;51.548;14.348;2023-04-03T21:24:31;3.70;99.90
17851;DHT22;9051;51.548;14.348;2023-04-03T21:34:35;3.60;99.90
17851;DHT22;9051;51.548;14.348;2023-04-03T21:39:45;3.60;99.90
17851;DHT22;9051;51.548;14.348;2023-04-03T21:42:17;3.50;99.90
17851;DHT22;9051;51.548;14.348;2023-04-03T21:44:49;3.60;99.90
17851;DHT22;9051;51.548;14.348;2023-04-03T21:47:21;3.50;99.90
17851;DHT22;9051;51.548;14.348;2023-04-03T21:49:53;3.60;99.90
17851;DHT22;9051;51.548;14.348;2023-04-03T21:52:26;3.60;99.90
17851;DHT22;9051;51.548;14.348;2023-04-03T21:54:59;3.60;99.90
17851;DHT22;9051;51.548;14.348;2023-04-03T21:57:31;3.50;99.90
17851;DHT22;9051;51.548;14.348;2023-04-03T22:00:03;3.50;99.90
17851;DHT22;9051;51.548;14.348;2023-04-03T22:02:40;3.50;99.90
17851;DHT22;9051;51.548;14.348;2023-04-03T22:05:12;3.40;99.90
17851;DHT22;9051;51.548;14.348;2023-04-03T22:07:44;3.40;99.90
17851;DHT22;9051;51.548;14.348;2023-04-03T22:10:18;3.40;99.90
17851;DHT22;9051;51.548;14.348;2023-04-03T22:12:50;3.40;99.90
17851;DHT22;9051;51.548;14.348;2023-04-03T22:15:22;3.30;99.90
17851;DHT22;9051;51.548;14.348;2023-04-03T22:17:54;3.30;99.90
17851;DHT22;9051;51.548;14.348;2023-04-03T22:20:26;3.30;99.90
17851;DHT22;9051;51.548;14.348;2023-04-03T22:22:58;3.30;99.90
17851;DHT22;9051;51.548;14.348;2023-04-03T22:25:31;3.30;99.90
17851;DHT22;9051;51.548;14.348;2023-04-03T22:28:04;3.30;99.90
17851;DHT22;9051;51.548;14.348;2023-04-03T22:30:37;3.20;99.90
17851;DHT22;9051;51.548;14.348;2023-04-03T22:33:11;3.30;99.90
17851;DHT22;9051;51.548;14.348;2023-04-03T22:35:45;3.20;99.90
17851;DHT22;9051;51.548;14.348;2023-04-03T22:38:17;3.30;99.90
17851;DHT22;9051;51.548;14.348;2023-04-03T22:40:56;3.30;99.90
17851;DHT22;9051;51.548;14.348;2023-04-03T22:43:30;3.30;99.90
17851;DHT22;9051;51.548;14.348;2023-04-03T22:46:03;3.20;99.90
17851;DHT22;9051;51.548;14.348;2023-04-03T22:48:36;3.20;99.90
17851;DHT22;9051;51.548;14.348;2023-04-03T22:51:08;3.20;99.90
17851;DHT22;9051;51.548;14.348;2023-04-03T22:53:41;3.20;99.90
17851;DHT22;9051;51.548;14.348;2023-04-03T22:56:14;3.20;99.90
17851;DHT22;9051;51.548;14.348;2023-04-03T22:58:46;3.20;99.90
17851;DHT22;9051;51.548;14.348;2023-04-03T23:01:20;3.20;99.90
17851;DHT22;9051;51.548;14.348;2023-04-03T23:03:53;3.10;99.90
17851;DHT22;9051;51.548;14.348;2023-04-03T23:06:25;3.10;99.90
17851;DHT22;9051;51.548;14.348;2023-04-03T23:08:57;3.20;99.90
17851;DHT22;9051;51.548;14.348;2023-04-03T23:11:31;3.10;99.90
17851;DHT22;9051;51.548;14.348;2023-04-03T23:14:02;3.20;99.90
17851;DHT22;9051;51.548;14.348;2023-04-03T23:16:34;3.10;99.90
17851;DHT22;9051;51.548;14.348;2023-04-03T23:19:06;3.10;99.90
17851;DHT22;9051;51.548;14.348;2023-04-03T23:21:39;3.10;99.90
17851;DHT22;9051;51.548;14.348;2023-04-03T23:24:11;3.20;99.90
17851;DHT22;9051;51.548;14.348;2023-04-03T23:26:44;3.20;99.90
17851;DHT22;9051;51.548;14.348;2023-04-03T23:29:16;3.20;99.90
17851;DHT22;9051;51.548;14.348;2023-04-03T23:31:48;3.10;99.90
17851;DHT22;9051;51.548;14.348;2023-04-03T23:34:21;3.10;99.90
17851;DHT22;9051;51.548;14.348;2023-04-03T23:36:53;3.10;99.90
17851;DHT22;9051;51.548;14.348;2023-04-03T23:39:25;3.10;99.90
17851;DHT22;9051;51.548;14.348;2023-04-03T23:41:58;3.10;99.90
17851;DHT22;9051;51.548;14.348;2023-04-03T23:44:30;3.10;99.90
17851;DHT22;9051;51.548;14.348;2023-04-03T23:47:02;3.10;99.90
17851;DHT22;9051;51.548;14.348;2023-04-03T23:49:34;3.10;99.90
17851;DHT22;9051;51.548;14.348;2023-04-03T23:52:06;3.10;99.90
17851;DHT22;9051;51.548;14.348;2023-04-03T23:54:39;3.10;99.90
17851;DHT22;9051;51.548;14.348;2023-04-03T23:57:12;3.10;99.90
17851;DHT22;9051;51.548;14.348;2023-04-03T23:59:44;3.00;99.90
